Time;durP1;ratioP1;P1;durP2;ratioP2;P2;SDS_P1;SDS_P2;PMS_P1;PMS_P2;Temp;Humidity;BMP_temperature;BMP_pressure;BME280_temperature;BME280_humidity;BME280_pressure;Samples;Min_cycle;Max_cycle;Signal;HPM_P1;HPM_P2
2023/12/08 00:04:30;;;;;;;13.73;12.00;;;4.40;99.90;;;;;;10367898;28;20696;-77
2023/12/08 00:09:33;;;;;;;12.40;11.20;;;4.40;99.90;;;;;;10377587;28;20207;-79
2023/12/08 00:14:36;;;;;;;12.43;11.23;;;4.50;99.90;;;;;;10377377;28;20703;-75
2023/12/08 00:19:40;;;;;;;11.90;10.80;;;4.50;99.90;;;;;;10383028;28;20672;-78
2023/12/08 00:24:43;;;;;;;12.50;11.30;;;4.60;99.90;;;;;;10376283;28;20210;-79
2023/12/08 00:29:46;;;;;;;13.63;12.23;;;4.60;99.90;;;;;;10381098;28;20722;-79
2023/12/08 00:34:49;;;;;;;12.63;11.40;;;4.60;99.90;;;;;;10374403;28;20704;-79
2023/12/08 00:39:52;;;;;;;12.30;10.60;;;4.60;99.90;;;;;;10373090;28;20620;-79
2023/12/08 00:44:55;;;;;;;14.37;12.27;;;4.50;99.90;;;;;;10373527;28;20219;-79
2023/12/08 00:49:58;;;;;;;13.07;11.77;;;4.60;99.90;;;;;;10375341;28;20225;-78
2023/12/08 00:55:00;;;;;;;14.20;12.33;;;4.60;99.90;;;;;;10374045;28;20713;-79
2023/12/08 01:00:05;;;;;;;12.27;10.97;;;4.50;99.90;;;;;;10375232;28;20261;-79
2023/12/08 01:05:08;;;;;;;12.27;11.13;;;4.50;99.90;;;;;;10373887;28;20226;-78
2023/12/08 01:10:10;;;;;;;12.17;10.97;;;4.60;99.90;;;;;;10373973;28;20260;-79
2023/12/08 01:15:14;;;;;;;12.93;11.30;;;4.50;99.90;;;;;;10372222;28;20230;-79
2023/12/08 01:20:17;;;;;;;17.73;14.37;;;4.60;99.90;;;;;;10373516;28;20253;-79
2023/12/08 01:25:19;;;;;;;15.23;12.10;;;4.60;99.90;;;;;;10374382;28;20221;-79
2023/12/08 01:30:23;;;;;;;12.30;11.00;;;4.60;99.90;;;;;;10375434;28;20195;-79
2023/12/08 01:35:26;;;;;;;15.13;13.20;;;4.70;99.90;;;;;;10372167;28;20272;-77
2023/12/08 01:40:28;;;;;;;42.77;27.87;;;4.60;99.90;;;;;;10371443;28;20209;-79
2023/12/08 01:45:32;;;;;;;16.23;10.67;;;4.60;99.90;;;;;;10371566;28;20218;-79
2023/12/08 01:50:34;;;;;;;13.67;12.10;;;4.60;99.90;;;;;;10372519;28;20276;-79
2023/12/08 01:55:37;;;;;;;11.20;10.10;;;4.60;99.90;;;;;;10372881;28;20302;-79
2023/12/08 02:00:41;;;;;;;12.30;11.00;;;4.60;99.90;;;;;;10368649;28;20206;-79
2023/12/08 02:05:49;;;;;;;12.80;10.50;;;4.70;99.90;;;;;;10375385;28;20303;-79
2023/12/08 02:10:51;;;;;;;16.20;13.43;;;4.70;99.90;;;;;;10372547;28;20206;-79
2023/12/08 02:16:03;;;;;;;11.90;10.70;;;4.70;99.90;;;;;;10377161;28;20647;-79
2023/12/08 02:21:08;;;;;;;11.53;10.30;;;4.70;99.90;;;;;;10377813;28;20214;-79
2023/12/08 02:26:12;;;;;;;11.50;10.30;;;4.70;99.90;;;;;;10380951;28;20225;-79
2023/12/08 02:31:17;;;;;;;11.40;10.23;;;4.80;99.90;;;;;;10386863;28;20206;-79
2023/12/08 02:36:19;;;;;;;11.77;10.57;;;4.70;99.90;;;;;;10377779;28;20289;-77
2023/12/08 02:41:23;;;;;;;11.03;9.63;;;4.70;99.90;;;;;;10378758;28;20214;-79
2023/12/08 02:46:26;;;;;;;10.83;9.73;;;4.70;99.90;;;;;;10378406;28;20699;-79
2023/12/08 02:51:28;;;;;;;24.20;18.50;;;4.60;99.90;;;;;;10387440;28;20225;-77
2023/12/08 02:56:32;;;;;;;12.57;10.13;;;4.60;99.90;;;;;;10376670;28;20273;-79
2023/12/08 03:01:34;;;;;;;10.90;9.80;;;4.60;99.90;;;;;;10379637;28;20194;-79
2023/12/08 03:06:36;;;;;;;13.90;12.07;;;4.50;99.90;;;;;;10378290;28;20544;-79
2023/12/08 03:11:40;;;;;;;10.63;9.63;;;4.50;99.90;;;;;;10379584;28;20203;-76
2023/12/08 03:16:45;;;;;;;10.63;9.53;;;4.50;99.90;;;;;;10380244;28;20260;-79
2023/12/08 03:21:48;;;;;;;9.50;8.50;;;4.50;99.90;;;;;;10376045;28;20206;-78
2023/12/08 03:26:51;;;;;;;10.07;9.13;;;4.60;99.90;;;;;;10377040;28;20222;-79
2023/12/08 03:31:54;;;;;;;9.40;8.60;;;4.50;99.90;;;;;;10376267;28;20253;-78
2023/12/08 03:36:56;;;;;;;8.70;7.80;;;4.50;99.90;;;;;;10373510;28;20226;-78
2023/12/08 03:42:00;;;;;;;8.70;7.93;;;4.40;99.90;;;;;;10376434;28;20206;-78
2023/12/08 03:47:02;;;;;;;9.07;8.27;;;4.30;99.90;;;;;;10377306;28;20210;-78
2023/12/08 03:52:05;;;;;;;8.67;7.87;;;4.40;99.90;;;;;;10381707;28;20225;-79
2023/12/08 03:57:08;;;;;;;9.30;8.40;;;4.50;99.90;;;;;;10387096;28;20227;-79
2023/12/08 04:02:11;;;;;;;8.50;7.67;;;4.50;99.90;;;;;;10368118;28;20234;-79
2023/12/08 04:07:13;;;;;;;8.00;7.30;;;4.60;99.90;;;;;;10375525;28;20658;-79
2023/12/08 04:12:17;;;;;;;8.07;7.30;;;4.60;99.90;;;;;;10376358;28;20697;-79
2023/12/08 04:17:19;;;;;;;8.50;7.70;;;4.50;99.90;;;;;;10375634;28;20219;-79
2023/12/08 04:22:21;;;;;;;6.60;6.10;;;4.50;99.90;;;;;;10374575;28;20206;-76
2023/12/08 04:27:25;;;;;;;7.77;7.07;;;4.50;99.90;;;;;;10375605;28;20280;-79
2023/12/08 04:32:27;;;;;;;8.90;8.17;;;4.50;99.90;;;;;;10380112;28;20206;-78
2023/12/08 04:37:29;;;;;;;7.77;7.03;;;4.60;99.90;;;;;;10370881;28;20252;-79
2023/12/08 04:42:34;;;;;;;9.00;8.10;;;4.60;99.90;;;;;;10376629;28;20252;-78
2023/12/08 04:47:36;;;;;;;8.13;7.33;;;4.70;99.90;;;;;;10369004;28;20264;-79
2023/12/08 04:52:39;;;;;;;8.23;7.43;;;4.70;99.90;;;;;;10387562;28;20277;-79
2023/12/08 04:57:42;;;;;;;8.90;8.03;;;4.70;99.90;;;;;;10389194;28;20230;-79
2023/12/08 05:02:45;;;;;;;8.40;7.60;;;4.80;99.90;;;;;;10383725;28;20198;-79
2023/12/08 05:07:47;;;;;;;8.50;7.70;;;4.70;99.90;;;;;;10374657;28;20281;-79
2023/12/08 05:12:51;;;;;;;9.30;8.40;;;4.70;99.90;;;;;;10383762;28;20191;-78
2023/12/08 05:17:53;;;;;;;9.20;8.40;;;4.70;99.90;;;;;;10382537;28;20234;-78
2023/12/08 05:22:55;;;;;;;7.00;6.40;;;4.70;99.90;;;;;;10373000;28;20325;-79
2023/12/08 05:27:59;;;;;;;7.77;7.13;;;4.60;99.90;;;;;;10372247;28;20244;-79
2023/12/08 05:33:01;;;;;;;12.30;9.40;;;4.60;99.90;;;;;;10371232;28;20257;-78
2023/12/08 05:38:03;;;;;;;11.47;10.47;;;4.60;99.90;;;;;;10371086;28;20210;-79
2023/12/08 05:43:07;;;;;;;13.90;12.60;;;4.60;99.90;;;;;;10372150;28;20261;-79
2023/12/08 05:48:10;;;;;;;15.40;14.10;;;4.60;99.90;;;;;;10373061;28;20214;-79
2023/12/08 05:53:13;;;;;;;17.13;15.53;;;4.50;99.90;;;;;;10370456;28;20210;-78
2023/12/08 05:58:17;;;;;;;16.90;15.50;;;4.30;99.90;;;;;;10373772;28;20604;-78
2023/12/08 06:03:19;;;;;;;20.03;18.23;;;4.20;99.90;;;;;;10389998;28;20205;-77
2023/12/08 06:08:21;;;;;;;19.97;17.97;;;4.10;99.90;;;;;;10396157;28;20261;-78
2023/12/08 06:13:25;;;;;;;19.10;17.50;;;4.00;99.90;;;;;;10393345;28;20233;-78
2023/12/08 06:18:27;;;;;;;20.73;19.03;;;4.00;99.90;;;;;;10392231;28;20226;-78
2023/12/08 06:23:30;;;;;;;19.33;17.73;;;4.00;99.90;;;;;;10379590;28;20207;-78
2023/12/08 06:28:33;;;;;;;19.90;18.20;;;4.00;99.90;;;;;;10375553;28;20218;-78
2023/12/08 06:33:36;;;;;;;18.90;17.23;;;4.00;99.90;;;;;;10370744;28;20201;-77
2023/12/08 06:38:38;;;;;;;22.03;20.17;;;4.00;99.90;;;;;;10382934;28;20280;-79
2023/12/08 06:43:42;;;;;;;19.37;17.67;;;4.00;99.90;;;;;;10378604;28;20218;-78
2023/12/08 06:48:44;;;;;;;20.20;18.40;;;4.00;99.90;;;;;;10376998;28;20249;-77
2023/12/08 06:53:46;;;;;;;18.77;17.13;;;4.00;99.90;;;;;;10381131;28;20214;-79
2023/12/08 06:58:53;;;;;;;17.40;15.90;;;4.00;99.90;;;;;;10380778;28;20225;-75
2023/12/08 07:03:55;;;;;;;19.30;17.60;;;4.00;99.90;;;;;;10378358;28;20210;-78
2023/12/08 07:08:58;;;;;;;23.90;21.53;;;4.10;99.90;;;;;;10378249;28;20203;-78
2023/12/08 07:14:01;;;;;;;17.90;16.40;;;4.10;99.90;;;;;;10386094;28;20556;-78
2023/12/08 07:19:04;;;;;;;16.47;15.07;;;4.10;99.90;;;;;;10374720;28;20226;-77
2023/12/08 07:24:06;;;;;;;18.30;16.50;;;4.20;99.90;;;;;;10374815;28;20222;-78
2023/12/08 07:29:10;;;;;;;14.33;13.27;;;4.10;99.90;;;;;;10374752;28;20248;-78
2023/12/08 07:34:12;;;;;;;14.93;13.80;;;4.20;99.90;;;;;;10373547;28;20226;-77
2023/12/08 07:39:15;;;;;;;15.43;14.03;;;4.30;99.90;;;;;;10375042;28;20226;-78
2023/12/08 07:44:19;;;;;;;14.63;13.23;;;4.40;99.90;;;;;;10372496;28;20603;-76
2023/12/08 07:49:21;;;;;;;10.93;9.93;;;4.50;99.90;;;;;;10373441;28;20641;-78
2023/12/08 07:54:23;;;;;;;12.70;11.53;;;4.70;99.90;;;;;;10374543;28;20233;-79
2023/12/08 07:59:27;;;;;;;12.60;11.50;;;4.80;99.90;;;;;;10375683;28;20776;-79
2023/12/08 08:04:30;;;;;;;13.63;12.10;;;4.90;99.90;;;;;;10370380;28;20226;-78
2023/12/08 08:09:32;;;;;;;12.80;10.67;;;5.00;99.90;;;;;;10372765;28;20198;-78
2023/12/08 08:14:38;;;;;;;14.50;12.50;;;5.10;99.90;;;;;;10372924;28;20441;-75
2023/12/08 08:19:41;;;;;;;13.23;12.13;;;5.30;99.90;;;;;;10369710;28;20230;-79
2023/12/08 08:24:43;;;;;;;12.80;11.70;;;5.30;99.90;;;;;;10373889;28;20293;-79
2023/12/08 08:29:47;;;;;;;12.20;11.30;;;5.40;99.90;;;;;;10373486;28;20199;-79
2023/12/08 08:34:49;;;;;;;13.37;12.30;;;5.40;99.90;;;;;;10377574;28;20268;-78
2023/12/08 08:39:52;;;;;;;14.30;12.90;;;5.50;99.90;;;;;;10379246;28;20640;-79
2023/12/08 08:44:55;;;;;;;13.50;12.10;;;5.60;99.90;;;;;;10373679;28;20226;-79
2023/12/08 08:49:58;;;;;;;13.67;12.33;;;5.70;99.90;;;;;;10375847;28;20679;-78
2023/12/08 08:55:00;;;;;;;15.40;13.90;;;5.80;99.90;;;;;;10379201;28;20285;-79
2023/12/08 09:00:05;;;;;;;16.77;14.20;;;5.80;99.90;;;;;;10377221;28;20217;-79
2023/12/08 09:05:08;;;;;;;12.67;11.47;;;5.90;99.90;;;;;;10359403;28;20300;-79
2023/12/08 09:10:11;;;;;;;16.07;14.60;;;5.90;99.90;;;;;;10375735;28;20213;-79
2023/12/08 09:15:15;;;;;;;17.33;14.00;;;6.00;99.90;;;;;;10379968;28;20230;-77
2023/12/08 09:20:18;;;;;;;14.77;13.30;;;6.00;99.90;;;;;;10373547;28;20565;-79
2023/12/08 09:25:21;;;;;;;15.53;14.03;;;6.00;99.90;;;;;;10371610;28;20296;-78
2023/12/08 09:30:25;;;;;;;14.13;12.83;;;6.00;99.90;;;;;;10374158;28;20221;-79
2023/12/08 09:35:28;;;;;;;14.27;11.93;;;6.00;99.90;;;;;;10374306;28;20230;-79
2023/12/08 09:40:33;;;;;;;15.43;14.13;;;6.10;99.90;;;;;;10370121;28;20285;-79
2023/12/08 09:45:38;;;;;;;12.47;11.17;;;6.10;99.90;;;;;;10370878;28;20704;-79
2023/12/08 09:50:41;;;;;;;14.40;13.10;;;6.10;99.90;;;;;;10375500;28;20265;-79
2023/12/08 09:55:47;;;;;;;14.80;13.30;;;6.20;99.90;;;;;;10369624;28;20719;-79
2023/12/08 10:00:52;;;;;;;17.00;15.50;;;6.20;99.90;;;;;;10372505;28;20230;-79
2023/12/08 10:05:55;;;;;;;14.47;13.20;;;6.30;99.90;;;;;;10370394;28;20234;-79
2023/12/08 10:10:58;;;;;;;16.93;13.67;;;6.40;99.90;;;;;;10365046;28;20194;-79
2023/12/08 10:16:01;;;;;;;13.77;12.60;;;6.40;99.90;;;;;;10369786;28;20261;-79
2023/12/08 10:21:15;;;;;;;14.47;13.03;;;6.40;99.90;;;;;;10363353;28;20660;-77
2023/12/08 10:26:17;;;;;;;11.97;10.87;;;6.40;99.90;;;;;;10368962;28;20289;-79
2023/12/08 10:31:22;;;;;;;16.83;12.73;;;6.50;99.90;;;;;;10369972;28;20229;-79
2023/12/08 10:36:25;;;;;;;13.00;11.90;;;6.50;99.90;;;;;;10369732;28;20280;-80
2023/12/08 10:41:28;;;;;;;12.83;11.87;;;6.60;99.90;;;;;;10382174;28;20218;-79
2023/12/08 10:46:32;;;;;;;9.80;8.87;;;6.60;99.90;;;;;;10366077;28;20225;-79
2023/12/08 10:51:36;;;;;;;11.33;10.53;;;6.70;99.90;;;;;;10379753;28;20198;-80
2023/12/08 10:56:38;;;;;;;12.73;11.50;;;6.70;99.90;;;;;;10378737;28;20214;-79
2023/12/08 11:01:44;;;;;;;11.60;10.67;;;6.70;99.90;;;;;;10379093;28;20584;-79
2023/12/08 11:06:55;;;;;;;12.50;11.50;;;6.80;99.90;;;;;;10377831;28;20319;-79
2023/12/08 11:12:03;;;;;;;12.67;11.63;;;6.80;99.90;;;;;;10377801;28;20198;-79
2023/12/08 11:17:16;;;;;;;11.73;10.70;;;6.80;99.90;;;;;;10377736;28;20719;-79
2023/12/08 11:22:19;;;;;;;11.10;10.10;;;6.90;99.90;;;;;;10377117;28;20202;-79
2023/12/08 11:27:33;;;;;;;10.87;9.77;;;7.00;99.90;;;;;;10380416;28;20291;-79
2023/12/08 11:32:45;;;;;;;10.30;9.50;;;7.00;99.90;;;;;;10396307;28;20256;-79
2023/12/08 11:37:47;;;;;;;11.70;10.00;;;7.10;99.90;;;;;;10377393;28;20241;-79
2023/12/08 11:42:50;;;;;;;12.67;11.47;;;7.30;99.90;;;;;;10376908;28;20203;-79
2023/12/08 11:47:56;;;;;;;12.10;11.00;;;7.40;99.90;;;;;;10375523;28;20777;-79
2023/12/08 11:52:58;;;;;;;12.43;11.30;;;7.40;99.90;;;;;;10376727;28;20215;-79
2023/12/08 11:58:11;;;;;;;10.60;9.70;;;7.50;99.90;;;;;;10373292;28;20247;-79
2023/12/08 12:03:15;;;;;;;9.17;8.37;;;7.60;99.90;;;;;;10379086;28;20202;-79
2023/12/08 12:08:18;;;;;;;8.23;7.53;;;7.60;99.90;;;;;;10377176;28;20222;-79
2023/12/08 12:13:22;;;;;;;8.60;7.80;;;7.70;99.90;;;;;;10387739;28;20229;-78
2023/12/08 12:18:28;;;;;;;7.80;7.10;;;7.80;99.90;;;;;;10375249;28;20249;-79
2023/12/08 12:23:30;;;;;;;7.47;6.87;;;7.80;99.90;;;;;;10380765;28;20219;-79
2023/12/08 12:28:33;;;;;;;10.57;8.73;;;7.90;99.90;;;;;;10380986;28;20277;-78
2023/12/08 12:33:38;;;;;;;8.50;7.80;;;8.00;99.90;;;;;;10361546;28;20272;-78
2023/12/08 12:38:42;;;;;;;8.17;7.23;;;8.10;99.90;;;;;;10367018;28;20231;-79
2023/12/08 12:43:45;;;;;;;8.00;7.40;;;8.10;99.90;;;;;;10375064;28;20199;-77
2023/12/08 12:48:49;;;;;;;6.53;5.90;;;8.20;99.90;;;;;;10370323;28;20199;-79
2023/12/08 12:53:52;;;;;;;7.80;7.17;;;8.20;99.90;;;;;;10388569;28;20233;-78
2023/12/08 12:59:05;;;;;;;6.67;5.90;;;8.20;99.90;;;;;;10370027;28;20230;-79
2023/12/08 13:04:08;;;;;;;6.17;5.77;;;8.30;99.90;;;;;;10367553;28;20226;-78
2023/12/08 13:09:11;;;;;;;5.47;5.07;;;8.30;99.90;;;;;;10372808;28;20195;-79
2023/12/08 13:14:13;;;;;;;6.30;5.90;;;8.30;99.90;;;;;;10369459;28;20225;-79
2023/12/08 13:19:17;;;;;;;6.97;6.47;;;8.30;99.90;;;;;;10371253;28;20593;-79
2023/12/08 13:24:19;;;;;;;8.77;6.33;;;8.30;99.90;;;;;;10370596;28;20322;-80
2023/12/08 13:29:22;;;;;;;9.63;6.47;;;8.30;99.90;;;;;;10374138;28;20203;-80
2023/12/08 13:34:26;;;;;;;6.37;5.53;;;8.30;99.90;;;;;;10369423;28;20276;-80
2023/12/08 13:39:29;;;;;;;4.80;4.40;;;8.30;99.90;;;;;;10371466;28;20218;-79
2023/12/08 13:44:31;;;;;;;5.43;5.07;;;8.30;99.90;;;;;;10369978;28;20218;-79
2023/12/08 13:49:35;;;;;;;5.40;4.90;;;8.30;99.90;;;;;;10369744;28;20209;-78
2023/12/08 13:54:37;;;;;;;7.43;6.93;;;8.40;99.90;;;;;;10370254;28;20219;-78
2023/12/08 13:59:41;;;;;;;8.10;7.47;;;8.40;99.90;;;;;;10377779;28;20221;-78
2023/12/08 14:04:45;;;;;;;5.47;5.17;;;8.40;99.90;;;;;;10369825;28;20328;-79
2023/12/08 14:09:47;;;;;;;5.10;4.80;;;8.40;99.90;;;;;;10377742;28;20201;-79
2023/12/08 14:14:49;;;;;;;5.40;5.07;;;8.40;99.90;;;;;;10365962;28;20230;-79
2023/12/08 14:19:53;;;;;;;4.37;4.07;;;8.30;99.90;;;;;;10370809;28;20230;-79
2023/12/08 14:24:56;;;;;;;5.40;4.97;;;8.30;99.90;;;;;;10380179;28;20248;-79
2023/12/08 14:29:58;;;;;;;4.60;4.30;;;8.30;99.90;;;;;;10389792;28;20199;-79
2023/12/08 14:35:02;;;;;;;6.30;5.80;;;8.20;99.90;;;;;;10380825;28;20237;-80
2023/12/08 14:40:06;;;;;;;7.93;7.13;;;8.20;99.90;;;;;;10382037;28;20708;-79
2023/12/08 14:45:10;;;;;;;10.50;9.47;;;8.20;99.90;;;;;;10402512;28;20335;-79
2023/12/08 14:50:14;;;;;;;7.20;6.60;;;8.20;99.90;;;;;;10385502;28;20630;-80
2023/12/08 14:55:17;;;;;;;8.43;7.73;;;8.10;99.90;;;;;;10378595;28;20222;-81
2023/12/08 15:00:20;;;;;;;6.73;6.13;;;8.10;99.90;;;;;;10387708;28;20234;-81
2023/12/08 15:05:23;;;;;;;8.07;7.37;;;8.10;99.90;;;;;;10389089;28;20774;-80
2023/12/08 15:10:26;;;;;;;8.93;8.13;;;8.10;99.90;;;;;;10399034;28;20178;-80
2023/12/08 15:15:28;;;;;;;15.90;14.20;;;8.10;99.90;;;;;;10382888;28;20218;-81
2023/12/08 15:20:35;;;;;;;8.53;7.73;;;8.10;99.90;;;;;;10378631;28;20222;-78
2023/12/08 15:25:39;;;;;;;8.90;7.90;;;8.00;99.90;;;;;;10379766;28;20226;-78
2023/12/08 15:30:42;;;;;;;6.37;5.87;;;8.10;99.90;;;;;;10375932;28;20653;-78
2023/12/08 15:35:46;;;;;;;7.70;7.00;;;8.10;99.90;;;;;;10373228;28;20253;-78
2023/12/08 15:40:48;;;;;;;8.40;7.70;;;8.10;99.90;;;;;;10378615;28;20222;-79
2023/12/08 15:45:51;;;;;;;8.10;7.30;;;8.10;99.90;;;;;;10375752;28;20593;-78
2023/12/08 15:50:54;;;;;;;15.10;13.70;;;8.10;99.90;;;;;;10375690;28;20653;-78
2023/12/08 15:56:00;;;;;;;12.20;11.10;;;8.00;99.90;;;;;;10380317;28;20223;-79
2023/12/08 16:01:02;;;;;;;9.83;8.97;;;8.00;99.90;;;;;;10379806;28;20230;-80
2023/12/08 16:06:13;;;;;;;7.73;6.90;;;8.00;99.90;;;;;;10379133;28;20227;-79
2023/12/08 16:11:24;;;;;;;9.00;8.30;;;8.00;99.90;;;;;;10373435;28;20315;-79
2023/12/08 16:16:26;;;;;;;13.50;12.07;;;7.90;99.90;;;;;;10382027;28;20245;-79
2023/12/08 16:21:30;;;;;;;24.67;19.37;;;7.90;99.90;;;;;;10375581;28;20226;-79
2023/12/08 16:26:36;;;;;;;13.60;12.30;;;7.90;99.90;;;;;;10368007;28;20230;-79
2023/12/08 16:31:39;;;;;;;10.17;9.37;;;7.90;99.90;;;;;;10374364;28;20202;-79
2023/12/08 16:36:42;;;;;;;13.43;9.50;;;8.00;99.90;;;;;;10366511;28;20637;-79
2023/12/08 16:41:47;;;;;;;15.33;11.03;;;8.00;99.90;;;;;;10374294;28;20226;-77
2023/12/08 16:46:50;;;;;;;11.00;10.10;;;8.00;99.90;;;;;;10376056;28;20230;-78
2023/12/08 16:51:54;;;;;;;23.70;12.40;;;8.00;99.90;;;;;;10380080;28;20697;-77
2023/12/08 16:56:56;;;;;;;11.30;10.30;;;7.90;99.90;;;;;;10376980;28;20222;-79
2023/12/08 17:01:58;;;;;;;11.90;11.00;;;7.90;99.90;;;;;;10373400;28;20230;-79
2023/12/08 17:07:02;;;;;;;10.17;9.27;;;8.00;99.90;;;;;;10371887;28;20264;-79
2023/12/08 17:12:05;;;;;;;13.70;12.60;;;7.90;99.90;;;;;;10372668;28;20227;-78
2023/12/08 17:17:09;;;;;;;15.47;14.03;;;7.90;99.90;;;;;;10368897;28;20599;-77
2023/12/08 17:22:13;;;;;;;16.80;14.90;;;7.90;99.90;;;;;;10376399;28;20277;-78
2023/12/08 17:27:15;;;;;;;15.17;13.77;;;7.90;99.90;;;;;;10369867;28;20241;-79
2023/12/08 17:32:19;;;;;;;12.70;11.50;;;7.90;99.90;;;;;;10379363;28;20524;-79
2023/12/08 17:37:24;;;;;;;11.53;10.43;;;7.90;99.90;;;;;;10379435;28;20276;-78
2023/12/08 17:42:27;;;;;;;12.10;11.00;;;7.90;99.90;;;;;;10368133;28;20830;-79
2023/12/08 17:47:29;;;;;;;13.37;12.27;;;7.90;99.90;;;;;;10360160;28;20233;-79
2023/12/08 17:52:33;;;;;;;14.70;13.40;;;7.90;99.90;;;;;;10358030;28;20254;-78
2023/12/08 17:57:38;;;;;;;15.07;13.70;;;7.90;99.90;;;;;;10355921;28;20227;-81
2023/12/08 18:02:41;;;;;;;15.03;13.50;;;7.90;99.90;;;;;;10373130;28;20218;-81
2023/12/08 18:07:45;;;;;;;14.17;12.77;;;7.90;99.90;;;;;;10373921;28;20261;-77
2023/12/08 18:12:47;;;;;;;15.40;14.00;;;7.90;99.90;;;;;;10360695;28;20195;-79
2023/12/08 18:17:49;;;;;;;15.10;13.80;;;7.80;99.90;;;;;;10364376;28;20214;-79
2023/12/08 18:22:53;;;;;;;15.17;13.97;;;7.80;99.90;;;;;;10370549;28;20237;-80
2023/12/08 18:27:59;;;;;;;17.20;15.80;;;7.80;99.90;;;;;;10368545;28;20249;-79
2023/12/08 18:33:02;;;;;;;14.97;13.53;;;7.80;99.90;;;;;;10368766;28;20214;-80
2023/12/08 18:38:05;;;;;;;16.20;14.67;;;7.70;99.90;;;;;;10370380;28;20288;-78
2023/12/08 18:43:08;;;;;;;16.30;14.97;;;7.80;99.90;;;;;;10370637;28;20245;-80
2023/12/08 18:48:10;;;;;;;16.90;15.30;;;7.70;99.90;;;;;;10369184;28;20238;-79
2023/12/08 18:53:14;;;;;;;17.80;16.20;;;7.70;99.90;;;;;;10377143;28;20187;-79
2023/12/08 18:58:16;;;;;;;18.50;16.80;;;7.70;99.90;;;;;;10366546;28;20554;-79
2023/12/08 19:03:19;;;;;;;19.53;17.63;;;7.70;99.90;;;;;;10391528;23;20242;-77
2023/12/08 19:08:23;;;;;;;19.10;17.30;;;7.70;99.90;;;;;;10397817;28;20209;-77
2023/12/08 19:13:26;;;;;;;21.00;19.07;;;7.70;99.90;;;;;;10400241;28;20217;-77
2023/12/08 19:18:28;;;;;;;25.30;22.90;;;7.70;99.90;;;;;;10392002;28;20209;-77
2023/12/08 19:23:31;;;;;;;26.27;23.67;;;7.70;99.90;;;;;;10395122;28;20617;-77
2023/12/08 19:28:34;;;;;;;22.23;19.90;;;7.70;99.90;;;;;;10390371;28;20256;-77
2023/12/08 19:33:36;;;;;;;25.40;22.87;;;7.80;99.90;;;;;;10396337;28;20700;-77
2023/12/08 19:38:40;;;;;;;21.33;19.10;;;7.80;99.90;;;;;;10386835;28;20300;-77
2023/12/08 19:43:42;;;;;;;20.93;18.67;;;7.80;99.90;;;;;;10386165;28;20238;-77
2023/12/08 19:48:46;;;;;;;22.33;20.07;;;7.80;99.90;;;;;;10387634;28;20207;-77
2023/12/08 19:53:50;;;;;;;19.73;17.83;;;7.80;99.90;;;;;;10394393;28;20683;-76
2023/12/08 19:58:52;;;;;;;21.43;19.50;;;7.80;99.90;;;;;;10399813;28;20664;-77
2023/12/08 20:03:56;;;;;;;19.27;17.50;;;7.80;99.90;;;;;;10397079;28;20232;-77
2023/12/08 20:08:59;;;;;;;20.30;18.50;;;7.80;99.90;;;;;;10392700;28;20202;-77
2023/12/08 20:14:02;;;;;;;20.20;18.40;;;7.80;99.90;;;;;;10384975;28;20218;-77
2023/12/08 20:19:04;;;;;;;21.20;19.20;;;7.90;99.90;;;;;;10396835;28;20248;-77
2023/12/08 20:24:08;;;;;;;20.80;18.60;;;7.90;99.90;;;;;;10395585;28;20475;-77
2023/12/08 20:29:11;;;;;;;19.10;17.37;;;7.90;99.90;;;;;;10401739;28;20679;-77
2023/12/08 20:34:14;;;;;;;23.70;21.50;;;7.80;99.90;;;;;;10387146;28;20226;-77
2023/12/08 20:39:17;;;;;;;20.40;18.40;;;7.80;99.90;;;;;;10381942;28;20198;-77
2023/12/08 20:44:20;;;;;;;24.40;21.90;;;7.80;99.90;;;;;;10388431;28;20277;-77
2023/12/08 20:49:23;;;;;;;27.20;24.30;;;7.80;99.90;;;;;;10388147;28;20680;-77
2023/12/08 20:54:27;;;;;;;25.23;22.70;;;7.90;99.90;;;;;;10394548;28;20222;-77
2023/12/08 20:59:29;;;;;;;26.00;23.47;;;7.90;99.90;;;;;;10399081;28;20218;-77
2023/12/08 21:04:32;;;;;;;26.73;24.17;;;7.90;99.90;;;;;;10390389;28;20648;-78
2023/12/08 21:09:35;;;;;;;28.07;25.03;;;7.90;99.90;;;;;;10388496;28;20256;-77
2023/12/08 21:14:38;;;;;;;28.27;23.27;;;7.90;99.90;;;;;;10386610;28;20720;-77
2023/12/08 21:19:40;;;;;;;25.20;22.50;;;7.90;99.90;;;;;;10382301;28;20237;-77
2023/12/08 21:24:44;;;;;;;23.70;20.77;;;7.80;99.90;;;;;;10386356;28;20226;-77
2023/12/08 21:29:50;;;;;;;23.53;21.23;;;7.80;99.90;;;;;;10392131;28;20202;-77
2023/12/08 21:34:53;;;;;;;22.93;20.73;;;7.90;99.90;;;;;;10398096;28;20230;-77
2023/12/08 21:39:56;;;;;;;23.60;21.10;;;7.90;99.90;;;;;;10389632;28;20202;-77
2023/12/08 21:45:01;;;;;;;19.60;17.63;;;7.90;99.90;;;;;;10393266;28;20227;-77
2023/12/08 21:50:04;;;;;;;18.77;16.70;;;7.90;99.90;;;;;;10385569;28;20607;-77
2023/12/08 21:55:09;;;;;;;18.83;16.87;;;7.90;99.90;;;;;;10394713;28;20644;-77
2023/12/08 22:00:13;;;;;;;17.70;16.00;;;7.90;99.90;;;;;;10383505;28;20692;-77
2023/12/08 22:05:15;;;;;;;15.20;13.80;;;7.90;99.90;;;;;;10393422;28;20250;-77
2023/12/08 22:10:19;;;;;;;16.97;15.30;;;7.90;99.90;;;;;;10393313;28;20191;-77
2023/12/08 22:15:21;;;;;;;17.83;15.73;;;8.00;99.90;;;;;;10378228;28;20222;-76
2023/12/08 22:20:24;;;;;;;18.53;15.67;;;8.00;99.90;;;;;;10377007;28;20518;-77
2023/12/08 22:25:27;;;;;;;22.70;17.60;;;8.00;99.90;;;;;;10393114;28;20221;-77
2023/12/08 22:30:30;;;;;;;19.53;17.57;;;8.10;99.90;;;;;;10396900;28;20510;-77
2023/12/08 22:35:32;;;;;;;20.70;18.10;;;8.00;99.90;;;;;;10397142;28;20268;-76
2023/12/08 22:40:36;;;;;;;21.63;19.63;;;8.00;99.90;;;;;;10380039;28;20221;-76
2023/12/08 22:45:39;;;;;;;22.30;19.93;;;8.00;99.90;;;;;;10386579;28;20235;-75
2023/12/08 22:50:41;;;;;;;22.37;20.17;;;8.10;99.90;;;;;;10394522;28;20201;-76
2023/12/08 22:55:45;;;;;;;22.40;20.10;;;8.10;99.90;;;;;;10403438;28;20231;-76
2023/12/08 23:00:47;;;;;;;21.10;19.07;;;8.00;99.90;;;;;;10403701;28;20217;-76
2023/12/08 23:05:50;;;;;;;20.90;18.80;;;8.00;99.90;;;;;;10402319;28;20233;-76
2023/12/08 23:10:54;;;;;;;20.50;18.70;;;8.00;99.90;;;;;;10402780;28;20245;-76
2023/12/08 23:15:56;;;;;;;20.03;17.77;;;7.90;99.90;;;;;;10401546;28;20268;-76
2023/12/08 23:20:59;;;;;;;25.90;21.83;;;8.00;99.90;;;;;;10381187;28;20222;-78
2023/12/08 23:26:03;;;;;;;19.13;17.33;;;8.00;99.90;;;;;;10401742;28;20226;-78
2023/12/08 23:31:05;;;;;;;20.10;18.17;;;8.00;99.90;;;;;;10405940;28;20194;-78
2023/12/08 23:36:08;;;;;;;22.13;16.50;;;8.00;99.90;;;;;;10404703;28;20225;-77
2023/12/08 23:41:12;;;;;;;18.83;16.87;;;8.10;99.90;;;;;;10405236;28;20225;-77
2023/12/08 23:46:15;;;;;;;19.10;17.27;;;8.10;99.90;;;;;;10409647;28;20218;-78
2023/12/08 23:51:17;;;;;;;18.73;16.83;;;8.10;99.90;;;;;;10396093;28;20260;-77
2023/12/08 23:56:21;;;;;;;19.03;17.23;;;8.10;99.90;;;;;;10409710;28;20229;-77
